createdAt,value
2022-08-25T00:02:14.190Z,45130.44
2022-08-25T00:04:42.385Z,45146.44
2022-08-25T00:07:10.873Z,45134.44
2022-08-25T00:09:37.402Z,45136.44
2022-08-25T00:12:06.040Z,45122.47
2022-08-25T00:14:36.942Z,45150.44
2022-08-25T00:17:04.935Z,45146.44
2022-08-25T00:19:34.750Z,45142.44
2022-08-25T00:22:02.600Z,45138.44
2022-08-25T00:24:29.752Z,45156.44
2022-08-25T00:26:58.095Z,45154.44
2022-08-25T00:29:26.290Z,45134.44
2022-08-25T00:31:53.443Z,45150.44
2022-08-25T00:34:26.482Z,45158.44
2022-08-25T00:36:53.465Z,45142.44
2022-08-25T00:39:22.232Z,45154.44
2022-08-25T00:41:50.785Z,45150.44
2022-08-25T00:44:18.774Z,45146.44
2022-08-25T00:46:57.176Z,45154.44
2022-08-25T00:49:26.166Z,45162.44
2022-08-25T00:52:07.248Z,45154.44
2022-08-25T00:54:49.354Z,45150.44
2022-08-25T00:57:22.177Z,45138.44
2022-08-25T01:00:02.055Z,45162.44
2022-08-25T01:02:28.574Z,45158.44
2022-08-25T01:04:55.039Z,45168.41
2022-08-25T01:07:22.912Z,45158.44
2022-08-25T01:09:52.454Z,45166.44
2022-08-25T01:12:19.095Z,45162.44
2022-08-25T01:14:46.553Z,45174.41
2022-08-25T01:17:13.514Z,45164.44
2022-08-25T01:19:40.331Z,45166.44
2022-08-25T01:22:07.061Z,45162.44
2022-08-25T01:24:45.237Z,45166.44
2022-08-25T01:27:12.429Z,45174.41
2022-08-25T01:29:39.096Z,45182.41
2022-08-25T01:32:08.915Z,45174.41
2022-08-25T01:34:38.032Z,45180.41
2022-08-25T01:37:05.396Z,45178.41
2022-08-25T01:39:39.545Z,45166.44
2022-08-25T01:42:32.736Z,45168.41
2022-08-25T01:44:59.147Z,45170.41
2022-08-25T01:47:25.655Z,45186.41
2022-08-25T01:49:52.118Z,45174.41
2022-08-25T01:52:28.335Z,45186.41
2022-08-25T01:54:54.758Z,45186.41
2022-08-25T01:57:22.270Z,45166.44
2022-08-25T01:59:48.735Z,45190.41
2022-08-25T02:02:15.512Z,45180.41
2022-08-25T02:04:44.798Z,45170.41
2022-08-25T02:07:11.495Z,45184.41
2022-08-25T02:09:38.713Z,45170.41
2022-08-25T02:12:05.325Z,45186.41
2022-08-25T02:14:31.805Z,45186.41
2022-08-25T02:16:58.293Z,45190.41
2022-08-25T02:19:25.932Z,45192.41
2022-08-25T02:21:53.444Z,45194.41
2022-08-25T02:24:20.791Z,45180.41
2022-08-25T02:26:47.679Z,45186.41
2022-08-25T02:29:14.660Z,45172.41
2022-08-25T02:31:41.447Z,45174.41
2022-08-25T02:34:09.296Z,45192.41
2022-08-25T02:36:37.254Z,45194.41
2022-08-25T02:39:05.762Z,45198.41
2022-08-25T02:41:33.427Z,45194.41
2022-08-25T02:44:01.127Z,45194.41
2022-08-25T02:46:28.131Z,45192.41
2022-08-25T02:48:55.195Z,45194.41
2022-08-25T02:51:23.153Z,45202.38
2022-08-25T02:53:49.988Z,45202.38
2022-08-25T02:56:18.165Z,45198.41
2022-08-25T02:58:45.902Z,45202.38
2022-08-25T03:01:13.393Z,45206.38
2022-08-25T03:03:42.171Z,45198.41
2022-08-25T03:06:13.071Z,45198.41
2022-08-25T03:08:40.204Z,45198.41
2022-08-25T03:11:06.706Z,45186.41
2022-08-25T03:13:33.208Z,45190.41
2022-08-25T03:16:00.970Z,45198.41
2022-08-25T03:18:30.110Z,45210.38
2022-08-25T03:20:58.047Z,45202.38
2022-08-25T03:23:24.715Z,45210.38
2022-08-25T03:26:09.758Z,45208.38
2022-08-25T03:28:36.408Z,45206.38
2022-08-25T03:31:03.272Z,45198.41
2022-08-25T03:33:30.817Z,45210.38
2022-08-25T03:35:57.779Z,45202.38
2022-08-25T03:38:25.233Z,45214.38
2022-08-25T03:40:52.260Z,45204.38
2022-08-25T03:43:19.307Z,45202.38
2022-08-25T03:45:46.342Z,45202.38
2022-08-25T03:48:14.134Z,45192.41
2022-08-25T03:50:50.641Z,45198.41
2022-08-25T03:53:19.881Z,45206.38
2022-08-25T03:55:46.825Z,45210.38
2022-08-25T03:58:13.835Z,45206.38
2022-08-25T04:00:40.795Z,45218.38
2022-08-25T04:03:07.485Z,45202.38
2022-08-25T04:05:34.171Z,45200.41
2022-08-25T04:08:01.862Z,45214.38
2022-08-25T04:10:31.461Z,45206.38
2022-08-25T04:12:58.135Z,45204.38
2022-08-25T04:15:30.134Z,45206.38
2022-08-25T04:17:58.920Z,45222.38
2022-08-25T04:20:26.105Z,45210.38
2022-08-25T04:22:52.808Z,45222.38
2022-08-25T04:25:19.272Z,45218.38
2022-08-25T04:27:45.703Z,45206.38
2022-08-25T04:30:12.830Z,45218.38
2022-08-25T04:32:39.523Z,45230.38
2022-08-25T04:35:06.449Z,45216.38
2022-08-25T04:37:33.314Z,45218.38
2022-08-25T04:40:00.304Z,45220.38
2022-08-25T04:42:27.221Z,45222.38
2022-08-25T04:44:54.520Z,45228.38
2022-08-25T04:47:21.286Z,45212.38
2022-08-25T04:49:47.781Z,45206.38
2022-08-25T04:52:14.656Z,45222.38
2022-08-25T04:54:42.052Z,45224.38
2022-08-25T04:57:08.577Z,45210.38
2022-08-25T04:59:35.205Z,45222.38
2022-08-25T05:02:02.982Z,45220.38
2022-08-25T05:04:30.175Z,45250.34
2022-08-25T05:06:57.788Z,45212.38
2022-08-25T05:09:25.429Z,45214.38
2022-08-25T05:11:52.511Z,45222.38
2022-08-25T05:14:25.744Z,45242.34
2022-08-25T05:16:54.353Z,45226.38
2022-08-25T05:19:20.785Z,45214.38
2022-08-25T05:21:47.749Z,45210.38
2022-08-25T05:24:14.178Z,45216.38
2022-08-25T05:26:40.632Z,45214.38
2022-08-25T05:29:07.697Z,45214.38
2022-08-25T05:31:38.443Z,45226.38
2022-08-25T05:34:08.764Z,45214.38
2022-08-25T05:36:35.752Z,45222.38
2022-08-25T05:39:03.589Z,45222.38
2022-08-25T05:41:30.961Z,45204.38
2022-08-25T05:43:57.832Z,45218.38
2022-08-25T05:46:25.092Z,45214.38
2022-08-25T05:48:52.182Z,45218.38
2022-08-25T05:51:19.673Z,45212.38
2022-08-25T05:53:48.610Z,45206.38
2022-08-25T05:56:15.392Z,45202.38
2022-08-25T05:58:43.135Z,45220.38
2022-08-25T06:06:07.688Z,45210.38
2022-08-25T06:23:18.183Z,45206.38
2022-08-25T06:59:41.677Z,45180.41
2022-08-25T07:02:08.252Z,45180.41
2022-08-25T07:04:35.249Z,45158.44
2022-08-25T07:19:01.520Z,45170.41
2022-08-25T08:29:56.008Z,45142.44
2022-08-25T08:32:25.208Z,45130.44
2022-08-25T08:47:28.645Z,45126.47
2022-08-25T08:57:27.009Z,45118.47
2022-08-25T09:00:02.126Z,45114.47
2022-08-25T16:22:29.742Z,44970.59
2022-08-25T16:24:56.163Z,44970.59
2022-08-25T16:27:22.567Z,44968.59
2022-08-25T16:29:49.158Z,44970.59
2022-08-25T16:32:16.149Z,44968.59
2022-08-25T16:34:43.098Z,44982.59
2022-08-25T16:37:11.211Z,44982.59
2022-08-25T16:39:39.844Z,44982.59
2022-08-25T16:42:06.645Z,44998.56
2022-08-25T16:44:34.265Z,44994.56
2022-08-25T16:47:01.305Z,44982.59
2022-08-25T16:49:27.798Z,44988.59
2022-08-25T16:51:57.102Z,44990.59
2022-08-25T16:54:44.958Z,44992.56
2022-08-25T16:57:11.713Z,44990.59
2022-08-25T16:59:38.230Z,44988.59
2022-08-25T17:02:06.352Z,44998.56
2022-08-25T17:04:32.923Z,44986.59
2022-08-25T17:06:59.893Z,44994.56
2022-08-25T17:09:26.357Z,45004.56
2022-08-25T17:11:56.585Z,44990.59
2022-08-25T17:14:23.257Z,45002.56
2022-08-25T17:16:54.451Z,45006.56
2022-08-25T17:19:21.223Z,44990.59
2022-08-25T17:21:50.706Z,45002.56
2022-08-25T17:24:17.671Z,45000.56
2022-08-25T17:26:47.160Z,45002.56
2022-08-25T17:29:13.657Z,44996.56
2022-08-25T17:31:40.499Z,45004.56
2022-08-25T17:34:12.799Z,44998.56
2022-08-25T17:36:43.715Z,44990.59
2022-08-25T17:39:12.743Z,45002.56
2022-08-25T17:41:42.911Z,44998.56
2022-08-25T17:44:09.356Z,44986.59
2022-08-25T17:46:37.029Z,45010.56
2022-08-25T17:49:04.431Z,44992.56
2022-08-25T17:51:31.915Z,45002.56
2022-08-25T17:53:59.037Z,45008.56
2022-08-25T17:56:27.366Z,45002.56
2022-08-25T17:58:57.993Z,45010.56
2022-08-25T18:01:27.723Z,45002.56
2022-08-25T18:03:54.869Z,45006.56
2022-08-25T18:06:23.530Z,45016.56
2022-08-25T18:08:53.628Z,45018.56
2022-08-25T18:11:24.463Z,45026.53
2022-08-25T18:13:53.528Z,45008.56
2022-08-25T18:16:21.743Z,45000.56
2022-08-25T18:18:48.356Z,44998.56
2022-08-25T18:21:17.455Z,45018.56
2022-08-25T18:23:44.666Z,45004.56
2022-08-25T18:26:12.950Z,45010.56
2022-08-25T18:28:39.850Z,45018.56
2022-08-25T18:31:06.406Z,45042.53
2022-08-25T18:33:34.401Z,45010.56
2022-08-25T18:36:01.959Z,45008.56
2022-08-25T18:38:52.135Z,45032.53
2022-08-25T18:41:25.713Z,45014.56
2022-08-25T18:43:52.930Z,45028.53
2022-08-25T18:46:19.540Z,45022.56
2022-08-25T18:48:49.494Z,45026.53
2022-08-25T18:51:19.488Z,45034.53
2022-08-25T18:53:50.995Z,45028.53
2022-08-25T18:56:18.987Z,45022.56
2022-08-25T18:58:46.749Z,45014.56
2022-08-25T19:01:15.054Z,45038.53
2022-08-25T19:03:43.031Z,45042.53
2022-08-25T19:06:09.880Z,45030.53
2022-08-25T19:08:39.439Z,45044.53
2022-08-25T19:11:09.645Z,45040.53
2022-08-25T19:13:36.181Z,45040.53
2022-08-25T19:16:17.744Z,45038.53
2022-08-25T19:18:47.101Z,45046.53
2022-08-25T19:21:13.659Z,45050.53
2022-08-25T19:23:40.190Z,45038.53
2022-08-25T19:26:17.015Z,45050.53
2022-08-25T19:28:45.884Z,45050.53
2022-08-25T19:31:15.309Z,45050.53
2022-08-25T19:33:45.374Z,45046.53
2022-08-25T19:36:13.078Z,45038.53
2022-08-25T19:38:39.609Z,45042.53
2022-08-25T19:41:13.849Z,45038.53
2022-08-25T19:43:55.096Z,45060.50
2022-08-25T19:46:25.768Z,45054.53
2022-08-25T19:49:07.948Z,45046.53
2022-08-25T19:51:40.845Z,45052.53
2022-08-25T19:54:12.608Z,45060.50
2022-08-25T19:56:43.908Z,45066.50
2022-08-25T19:59:40.813Z,45070.50
2022-08-25T20:02:15.198Z,45054.53
2022-08-25T20:04:47.958Z,45054.53
2022-08-25T20:07:18.577Z,45054.53
2022-08-25T20:09:45.089Z,45046.53
2022-08-25T20:12:12.319Z,45068.50
2022-08-25T20:14:39.063Z,45064.50
2022-08-25T20:17:14.516Z,45066.50
2022-08-25T20:19:52.230Z,45058.53
2022-08-25T20:22:19.944Z,45070.50
2022-08-25T20:24:51.071Z,45058.53
2022-08-25T20:27:25.610Z,45066.50
2022-08-25T20:29:52.716Z,45062.50
2022-08-25T20:32:19.768Z,45062.50
2022-08-25T20:34:46.805Z,45062.50
2022-08-25T20:37:13.364Z,45070.50
2022-08-25T20:39:40.860Z,45058.53
2022-08-25T20:42:08.025Z,45064.50
2022-08-25T20:44:41.301Z,45070.50
2022-08-25T20:47:10.295Z,45070.50
2022-08-25T20:49:39.134Z,45074.50
2022-08-25T20:52:07.406Z,45066.50
2022-08-25T20:54:34.185Z,45078.50
2022-08-25T20:57:01.439Z,45074.50
2022-08-25T20:59:29.303Z,45076.50
2022-08-25T21:01:55.997Z,45066.50
2022-08-25T21:04:25.183Z,45070.50
2022-08-25T21:06:51.876Z,45090.50
2022-08-25T21:09:22.856Z,45076.50
2022-08-25T21:11:52.997Z,45062.50
2022-08-25T21:14:20.985Z,45074.50
2022-08-25T21:16:48.089Z,45086.50
2022-08-25T21:19:33.958Z,45096.47
2022-08-25T21:22:00.549Z,45088.50
2022-08-25T21:24:28.394Z,45082.50
2022-08-25T21:26:56.335Z,45074.50
2022-08-25T21:29:25.870Z,45090.50
2022-08-25T21:31:56.811Z,45080.50
2022-08-25T21:34:23.356Z,45090.50
2022-08-25T21:36:49.793Z,45094.50
2022-08-25T21:39:16.588Z,45100.47
2022-08-25T21:41:45.079Z,45098.47
2022-08-25T21:44:12.839Z,45092.50
2022-08-25T21:46:40.325Z,45102.47
2022-08-25T21:49:07.548Z,45102.47
2022-08-25T21:51:40.813Z,45094.50
2022-08-25T21:54:13.947Z,45086.50
2022-08-25T21:56:53.073Z,45104.47
2022-08-25T21:59:26.813Z,45096.47
2022-08-25T22:01:58.718Z,45106.47
2022-08-25T22:04:27.731Z,45114.47
2022-08-25T22:06:54.797Z,45110.47
2022-08-25T22:09:24.536Z,45112.47
2022-08-25T22:11:53.202Z,45110.47
2022-08-25T22:14:23.284Z,45114.47
2022-08-25T22:16:51.850Z,45116.47
2022-08-25T22:19:18.504Z,45110.47
2022-08-25T22:21:45.276Z,45130.44
2022-08-25T22:24:11.799Z,45116.47
2022-08-25T22:26:39.390Z,45116.47
2022-08-25T22:29:07.564Z,45114.47
2022-08-25T22:31:35.182Z,45108.47
2022-08-25T22:34:02.874Z,45120.47
2022-08-25T22:36:33.028Z,45114.47
2022-08-25T22:38:59.472Z,45120.47
2022-08-25T22:41:28.322Z,45136.44
2022-08-25T22:43:56.570Z,45118.47
2022-08-25T22:46:29.086Z,45114.47
2022-08-25T22:48:56.604Z,45136.44
2022-08-25T22:51:26.954Z,45118.47
2022-08-25T22:53:54.541Z,45106.47
2022-08-25T22:56:31.769Z,45110.47
2022-08-25T22:59:00.742Z,45118.47
2022-08-25T23:01:27.513Z,45116.47
2022-08-25T23:03:54.114Z,45104.47
2022-08-25T23:06:24.671Z,45106.47
2022-08-25T23:08:53.531Z,45098.47
2022-08-25T23:11:23.555Z,45114.47
2022-08-25T23:13:50.848Z,45122.47
2022-08-25T23:16:18.224Z,45110.47
2022-08-25T23:18:46.698Z,45114.47
2022-08-25T23:21:35.330Z,45108.47
2022-08-25T23:24:07.786Z,45116.47
2022-08-25T23:26:34.618Z,45108.47
2022-08-25T23:29:01.406Z,45114.47
2022-08-25T23:31:29.984Z,45122.47
2022-08-25T23:33:57.834Z,45118.47
2022-08-25T23:36:24.620Z,45118.47
2022-08-25T23:38:52.455Z,45122.47
2022-08-25T23:41:23.026Z,45114.47
2022-08-25T23:43:49.952Z,45112.47
2022-08-25T23:46:19.925Z,45108.47
2022-08-25T23:48:48.356Z,45114.47
2022-08-25T23:51:28.632Z,45110.47
2022-08-25T23:53:56.955Z,45118.47
2022-08-25T23:56:25.852Z,45126.47
2022-08-25T23:58:52.271Z,45120.47
